メインページ
METAR-TAF:

METAR-TAF

空港 :

ザグレブ, クロアチア

ザグレブ国際空港

緯度: 45-44N, 経度: 016-04E, 海抜: 106m

現時点の気象観測

当レポートは19分前の23:00(UTC)に作成
西/南西の風 3kt
気温 13°C
湿度 82%
気圧 1022 hPa
視程10km以上
1,500メートル以下は雲なし、積乱雲なし

METAR: LDZA 272300Z 25003KT CAVOK 13/10 Q1022 NOSIG

時間: 01:19 (23:19 UTC)

予報

当レポートは5時間54分前の17:25(UTC)に作成
予報は27日の 18時(UTC)から 28日の 18時(UTC)まで有効
北東の風 6kt
視程10km以上
1,500メートル以下は雲なし、積乱雲なし

TAF: LDZA 271725Z 2718/2818 05006KT CAVOK TX28/2813Z TN13/2803Z

4,000以上の空港の気象観測と天気予報(METAR報とTAF報)

利用可能な観測所は地図上に黄色い丸と赤い丸で示す。

丸の上にカーソルを重ねると観測所名を参照できる。

次にクリックすると気象観測と天気予報を参照できる。

マップの切り替え:黒色「×」印の緑ボタンをクリックして拡大、「-」印の緑ボタンをクリックして縮小、緑色の三角印をクリックして隣りの地図に切り替え


METAR-TAF: